Ouloup Ile Ouvea, New Caledonia
Current Conditions -  °F | °C
As of 12:00 PM on Thursday 23 Oct 2014 (Local Time) from NWWW Reporting Station
Few Clouds Few Clouds  
Wind Chill: 79°   Ceiling: Unl
Heat Index: 80°   Visibility: 6mi
Dew Point: 57°   Wind: 14mph
Humidity: 47%   Direction: 130°SE
Pressure: 29.97"   Gusts: NA
Location:  20.65°S, 166.58°E
Report Text: NWWW 230100Z AUTO 13012KT 100V170 9999 FEW050/// 26/14 Q1015
Loading
Personal Weather Stations






























Interactive Weather Map
Tropical Storm Tracking
New forecast layout! Learn more

10-Day Weather Forecast

Advertisements
Track Severe Weather on mobile